sensor_id;sensor_type;location;lat;lon;timestamp;P1;durP1;ratioP1;P2;durP2;ratioP2
8421;SDS011;4248;48.196;10.924;2023-03-23T00:01:15;10.20;;;4.80;;
8421;SDS011;4248;48.196;10.924;2023-03-23T00:03:46;18.00;;;4.60;;
8421;SDS011;4248;48.196;10.924;2023-03-23T00:06:13;15.50;;;4.80;;
8421;SDS011;4248;48.196;10.924;2023-03-23T00:08:43;17.87;;;6.03;;
8421;SDS011;4248;48.196;10.924;2023-03-23T00:11:10;15.17;;;6.00;;
8421;SDS011;4248;48.196;10.924;2023-03-23T00:13:41;21.93;;;5.20;;
8421;SDS011;4248;48.196;10.924;2023-03-23T00:16:08;8.97;;;4.87;;
8421;SDS011;4248;48.196;10.924;2023-03-23T00:18:49;13.00;;;4.63;;
8421;SDS011;4248;48.196;10.924;2023-03-23T00:21:21;7.93;;;5.80;;
8421;SDS011;4248;48.196;10.924;2023-03-23T00:23:58;17.93;;;6.07;;
8421;SDS011;4248;48.196;10.924;2023-03-23T00:26:29;9.87;;;5.23;;
8421;SDS011;4248;48.196;10.924;2023-03-23T00:28:58;9.63;;;5.27;;
8421;SDS011;4248;48.196;10.924;2023-03-23T00:31:30;13.27;;;5.17;;
8421;SDS011;4248;48.196;10.924;2023-03-23T00:34:00;17.30;;;6.10;;
8421;SDS011;4248;48.196;10.924;2023-03-23T00:36:28;15.13;;;5.77;;
8421;SDS011;4248;48.196;10.924;2023-03-23T00:38:56;12.87;;;5.37;;
8421;SDS011;4248;48.196;10.924;2023-03-23T00:41:23;14.40;;;6.07;;
8421;SDS011;4248;48.196;10.924;2023-03-23T00:43:52;18.93;;;5.90;;
8421;SDS011;4248;48.196;10.924;2023-03-23T00:46:18;9.27;;;6.00;;
8421;SDS011;4248;48.196;10.924;2023-03-23T00:48:45;12.37;;;5.70;;
8421;SDS011;4248;48.196;10.924;2023-03-23T00:51:11;8.70;;;5.43;;
8421;SDS011;4248;48.196;10.924;2023-03-23T00:53:38;9.70;;;5.20;;
8421;SDS011;4248;48.196;10.924;2023-03-23T00:56:04;8.97;;;4.60;;
8421;SDS011;4248;48.196;10.924;2023-03-23T00:58:31;11.87;;;6.03;;
8421;SDS011;4248;48.196;10.924;2023-03-23T01:00:56;10.00;;;4.80;;
8421;SDS011;4248;48.196;10.924;2023-03-23T01:03:22;10.30;;;5.27;;
8421;SDS011;4248;48.196;10.924;2023-03-23T01:05:50;10.70;;;5.43;;
8421;SDS011;4248;48.196;10.924;2023-03-23T01:08:17;9.40;;;5.67;;
8421;SDS011;4248;48.196;10.924;2023-03-23T01:10:44;10.37;;;6.30;;
8421;SDS011;4248;48.196;10.924;2023-03-23T01:13:10;11.00;;;5.33;;
8421;SDS011;4248;48.196;10.924;2023-03-23T01:15:37;10.50;;;5.20;;
8421;SDS011;4248;48.196;10.924;2023-03-23T01:18:03;10.63;;;4.93;;
8421;SDS011;4248;48.196;10.924;2023-03-23T01:20:29;9.30;;;5.33;;
8421;SDS011;4248;48.196;10.924;2023-03-23T01:22:56;8.60;;;4.97;;
8421;SDS011;4248;48.196;10.924;2023-03-23T01:25:29;9.93;;;5.53;;
8421;SDS011;4248;48.196;10.924;2023-03-23T01:27:57;9.63;;;4.93;;
8421;SDS011;4248;48.196;10.924;2023-03-23T01:30:23;9.00;;;5.47;;
8421;SDS011;4248;48.196;10.924;2023-03-23T01:32:50;8.33;;;5.17;;
8421;SDS011;4248;48.196;10.924;2023-03-23T01:35:16;10.63;;;5.80;;
8421;SDS011;4248;48.196;10.924;2023-03-23T01:37:42;12.20;;;5.10;;
8421;SDS011;4248;48.196;10.924;2023-03-23T01:40:08;9.03;;;5.00;;
8421;SDS011;4248;48.196;10.924;2023-03-23T01:42:36;8.00;;;5.27;;
8421;SDS011;4248;48.196;10.924;2023-03-23T01:47:45;7.60;;;5.10;;
8421;SDS011;4248;48.196;10.924;2023-03-23T01:50:17;10.90;;;5.00;;
8421;SDS011;4248;48.196;10.924;2023-03-23T01:52:45;11.00;;;5.50;;
8421;SDS011;4248;48.196;10.924;2023-03-23T01:55:11;12.80;;;6.00;;
8421;SDS011;4248;48.196;10.924;2023-03-23T01:57:37;9.97;;;5.47;;
8421;SDS011;4248;48.196;10.924;2023-03-23T02:00:04;8.57;;;5.63;;
8421;SDS011;4248;48.196;10.924;2023-03-23T02:02:35;11.40;;;4.80;;
8421;SDS011;4248;48.196;10.924;2023-03-23T02:05:04;8.07;;;5.40;;
8421;SDS011;4248;48.196;10.924;2023-03-23T02:07:36;7.03;;;4.53;;
8421;SDS011;4248;48.196;10.924;2023-03-23T02:10:02;8.67;;;5.27;;
8421;SDS011;4248;48.196;10.924;2023-03-23T02:12:28;9.00;;;4.73;;
8421;SDS011;4248;48.196;10.924;2023-03-23T02:14:54;8.33;;;4.70;;
8421;SDS011;4248;48.196;10.924;2023-03-23T02:34:29;10.90;;;5.33;;
8421;SDS011;4248;48.196;10.924;2023-03-23T02:37:04;8.63;;;5.40;;
8421;SDS011;4248;48.196;10.924;2023-03-23T02:39:55;9.30;;;5.13;;
8421;SDS011;4248;48.196;10.924;2023-03-23T02:42:32;9.37;;;5.07;;
8421;SDS011;4248;48.196;10.924;2023-03-23T02:45:01;8.77;;;4.33;;
8421;SDS011;4248;48.196;10.924;2023-03-23T02:47:30;7.57;;;4.27;;
8421;SDS011;4248;48.196;10.924;2023-03-23T02:49:58;7.60;;;5.10;;
8421;SDS011;4248;48.196;10.924;2023-03-23T02:52:26;8.40;;;4.20;;
8421;SDS011;4248;48.196;10.924;2023-03-23T02:54:55;6.70;;;4.47;;
8421;SDS011;4248;48.196;10.924;2023-03-23T02:57:23;10.43;;;4.70;;
8421;SDS011;4248;48.196;10.924;2023-03-23T02:59:51;9.37;;;5.00;;
8421;SDS011;4248;48.196;10.924;2023-03-23T03:02:35;7.17;;;4.30;;
8421;SDS011;4248;48.196;10.924;2023-03-23T03:12:48;6.87;;;4.20;;
8421;SDS011;4248;48.196;10.924;2023-03-23T03:15:30;9.60;;;4.40;;
8421;SDS011;4248;48.196;10.924;2023-03-23T03:18:08;6.40;;;4.37;;
8421;SDS011;4248;48.196;10.924;2023-03-23T03:20:37;8.17;;;4.43;;
8421;SDS011;4248;48.196;10.924;2023-03-23T03:23:07;8.57;;;5.00;;
8421;SDS011;4248;48.196;10.924;2023-03-23T03:25:34;7.70;;;4.87;;
8421;SDS011;4248;48.196;10.924;2023-03-23T03:28:01;7.90;;;4.20;;
8421;SDS011;4248;48.196;10.924;2023-03-23T03:30:29;7.93;;;4.20;;
8421;SDS011;4248;48.196;10.924;2023-03-23T03:32:57;6.43;;;4.30;;
8421;SDS011;4248;48.196;10.924;2023-03-23T03:35:25;6.80;;;3.77;;
8421;SDS011;4248;48.196;10.924;2023-03-23T03:37:51;6.40;;;4.50;;
8421;SDS011;4248;48.196;10.924;2023-03-23T03:40:18;10.17;;;4.67;;
8421;SDS011;4248;48.196;10.924;2023-03-23T03:42:46;9.73;;;4.27;;
8421;SDS011;4248;48.196;10.924;2023-03-23T03:45:13;8.77;;;4.73;;
8421;SDS011;4248;48.196;10.924;2023-03-23T03:47:40;8.33;;;4.10;;
8421;SDS011;4248;48.196;10.924;2023-03-23T03:50:06;6.97;;;4.60;;
8421;SDS011;4248;48.196;10.924;2023-03-23T03:52:32;6.67;;;4.00;;
8421;SDS011;4248;48.196;10.924;2023-03-23T03:54:58;6.27;;;3.80;;
8421;SDS011;4248;48.196;10.924;2023-03-23T03:57:24;6.30;;;4.27;;
8421;SDS011;4248;48.196;10.924;2023-03-23T03:59:50;10.43;;;4.40;;
8421;SDS011;4248;48.196;10.924;2023-03-23T04:02:16;7.73;;;4.73;;
8421;SDS011;4248;48.196;10.924;2023-03-23T04:04:45;7.00;;;4.80;;
8421;SDS011;4248;48.196;10.924;2023-03-23T04:07:12;7.57;;;4.37;;
8421;SDS011;4248;48.196;10.924;2023-03-23T04:09:39;7.93;;;4.70;;
8421;SDS011;4248;48.196;10.924;2023-03-23T04:12:08;10.43;;;4.70;;
8421;SDS011;4248;48.196;10.924;2023-03-23T04:14:34;9.53;;;4.60;;
8421;SDS011;4248;48.196;10.924;2023-03-23T04:17:00;8.40;;;5.03;;
8421;SDS011;4248;48.196;10.924;2023-03-23T04:19:26;7.73;;;4.53;;
8421;SDS011;4248;48.196;10.924;2023-03-23T04:21:53;7.80;;;5.20;;
8421;SDS011;4248;48.196;10.924;2023-03-23T04:24:20;7.60;;;4.37;;
8421;SDS011;4248;48.196;10.924;2023-03-23T04:26:49;10.20;;;4.93;;
8421;SDS011;4248;48.196;10.924;2023-03-23T04:29:17;7.20;;;4.50;;
8421;SDS011;4248;48.196;10.924;2023-03-23T04:31:43;7.37;;;4.07;;
8421;SDS011;4248;48.196;10.924;2023-03-23T04:34:10;10.23;;;4.13;;
8421;SDS011;4248;48.196;10.924;2023-03-23T04:36:39;6.30;;;3.80;;
8421;SDS011;4248;48.196;10.924;2023-03-23T04:39:06;5.70;;;3.90;;
8421;SDS011;4248;48.196;10.924;2023-03-23T04:41:34;12.40;;;4.63;;
8421;SDS011;4248;48.196;10.924;2023-03-23T04:44:03;8.20;;;3.90;;
8421;SDS011;4248;48.196;10.924;2023-03-23T04:46:30;10.43;;;4.10;;
8421;SDS011;4248;48.196;10.924;2023-03-23T04:48:56;8.73;;;4.10;;
8421;SDS011;4248;48.196;10.924;2023-03-23T04:51:25;8.37;;;3.70;;
8421;SDS011;4248;48.196;10.924;2023-03-23T04:53:56;7.10;;;4.27;;
8421;SDS011;4248;48.196;10.924;2023-03-23T04:56:22;9.50;;;4.70;;
8421;SDS011;4248;48.196;10.924;2023-03-23T04:58:47;6.43;;;4.20;;
8421;SDS011;4248;48.196;10.924;2023-03-23T05:01:13;6.47;;;3.70;;
8421;SDS011;4248;48.196;10.924;2023-03-23T05:03:39;5.10;;;3.73;;
8421;SDS011;4248;48.196;10.924;2023-03-23T05:06:05;6.73;;;3.80;;
8421;SDS011;4248;48.196;10.924;2023-03-23T05:08:31;6.43;;;4.10;;
8421;SDS011;4248;48.196;10.924;2023-03-23T05:10:57;7.17;;;3.83;;
8421;SDS011;4248;48.196;10.924;2023-03-23T05:13:24;8.90;;;4.30;;
8421;SDS011;4248;48.196;10.924;2023-03-23T05:15:51;11.20;;;4.10;;
8421;SDS011;4248;48.196;10.924;2023-03-23T05:18:17;5.40;;;3.53;;
8421;SDS011;4248;48.196;10.924;2023-03-23T05:20:43;8.60;;;3.93;;
8421;SDS011;4248;48.196;10.924;2023-03-23T05:23:11;6.33;;;3.63;;
8421;SDS011;4248;48.196;10.924;2023-03-23T05:25:37;7.00;;;3.70;;
8421;SDS011;4248;48.196;10.924;2023-03-23T05:28:11;6.20;;;3.97;;
8421;SDS011;4248;48.196;10.924;2023-03-23T05:30:38;9.23;;;3.83;;
8421;SDS011;4248;48.196;10.924;2023-03-23T05:33:04;6.43;;;4.13;;
8421;SDS011;4248;48.196;10.924;2023-03-23T05:35:30;5.63;;;3.80;;
8421;SDS011;4248;48.196;10.924;2023-03-23T05:37:56;7.77;;;3.90;;
8421;SDS011;4248;48.196;10.924;2023-03-23T05:40:25;10.57;;;4.00;;
8421;SDS011;4248;48.196;10.924;2023-03-23T05:42:52;6.83;;;4.20;;
8421;SDS011;4248;48.196;10.924;2023-03-23T05:45:20;8.07;;;4.40;;
8421;SDS011;4248;48.196;10.924;2023-03-23T05:47:47;6.70;;;4.40;;
8421;SDS011;4248;48.196;10.924;2023-03-23T05:50:13;6.23;;;3.70;;
8421;SDS011;4248;48.196;10.924;2023-03-23T05:52:39;8.27;;;4.80;;
8421;SDS011;4248;48.196;10.924;2023-03-23T05:55:05;8.60;;;4.20;;
8421;SDS011;4248;48.196;10.924;2023-03-23T05:57:32;7.03;;;3.60;;
8421;SDS011;4248;48.196;10.924;2023-03-23T05:59:58;5.50;;;3.43;;
8421;SDS011;4248;48.196;10.924;2023-03-23T06:02:24;6.00;;;3.33;;
8421;SDS011;4248;48.196;10.924;2023-03-23T06:04:53;8.90;;;3.80;;
8421;SDS011;4248;48.196;10.924;2023-03-23T06:07:24;6.40;;;4.13;;
8421;SDS011;4248;48.196;10.924;2023-03-23T06:09:50;8.67;;;3.93;;
8421;SDS011;4248;48.196;10.924;2023-03-23T06:12:17;10.03;;;4.20;;
8421;SDS011;4248;48.196;10.924;2023-03-23T06:14:45;6.03;;;3.90;;
8421;SDS011;4248;48.196;10.924;2023-03-23T06:17:11;4.77;;;3.13;;
8421;SDS011;4248;48.196;10.924;2023-03-23T06:19:38;5.47;;;3.40;;
8421;SDS011;4248;48.196;10.924;2023-03-23T06:22:03;6.80;;;4.30;;
8421;SDS011;4248;48.196;10.924;2023-03-23T06:24:30;12.30;;;4.63;;
8421;SDS011;4248;48.196;10.924;2023-03-23T06:26:57;6.63;;;4.17;;
8421;SDS011;4248;48.196;10.924;2023-03-23T06:29:24;5.93;;;3.97;;
8421;SDS011;4248;48.196;10.924;2023-03-23T06:31:51;8.30;;;3.27;;
8421;SDS011;4248;48.196;10.924;2023-03-23T06:34:20;7.47;;;4.00;;
8421;SDS011;4248;48.196;10.924;2023-03-23T06:36:46;7.30;;;4.20;;
8421;SDS011;4248;48.196;10.924;2023-03-23T06:39:12;6.37;;;3.83;;
8421;SDS011;4248;48.196;10.924;2023-03-23T06:41:39;9.10;;;4.27;;
8421;SDS011;4248;48.196;10.924;2023-03-23T06:44:04;5.57;;;3.53;;
8421;SDS011;4248;48.196;10.924;2023-03-23T06:46:31;11.07;;;3.43;;
8421;SDS011;4248;48.196;10.924;2023-03-23T06:48:57;7.33;;;4.07;;
8421;SDS011;4248;48.196;10.924;2023-03-23T06:51:22;16.60;;;3.80;;
8421;SDS011;4248;48.196;10.924;2023-03-23T06:53:48;13.80;;;4.97;;
8421;SDS011;4248;48.196;10.924;2023-03-23T06:56:14;8.67;;;3.70;;
8421;SDS011;4248;48.196;10.924;2023-03-23T06:58:40;8.53;;;4.10;;
8421;SDS011;4248;48.196;10.924;2023-03-23T07:01:10;13.53;;;3.97;;
8421;SDS011;4248;48.196;10.924;2023-03-23T07:03:37;8.90;;;4.10;;
8421;SDS011;4248;48.196;10.924;2023-03-23T07:06:04;11.67;;;4.20;;
8421;SDS011;4248;48.196;10.924;2023-03-23T07:08:30;7.80;;;4.03;;
8421;SDS011;4248;48.196;10.924;2023-03-23T07:10:56;7.10;;;3.60;;
8421;SDS011;4248;48.196;10.924;2023-03-23T07:13:22;6.30;;;4.03;;
8421;SDS011;4248;48.196;10.924;2023-03-23T07:15:49;6.20;;;4.00;;
8421;SDS011;4248;48.196;10.924;2023-03-23T07:18:15;5.90;;;3.60;;
8421;SDS011;4248;48.196;10.924;2023-03-23T07:20:41;10.10;;;3.73;;
8421;SDS011;4248;48.196;10.924;2023-03-23T07:23:07;7.40;;;3.70;;
8421;SDS011;4248;48.196;10.924;2023-03-23T07:25:33;7.83;;;3.80;;
8421;SDS011;4248;48.196;10.924;2023-03-23T07:28:00;10.13;;;3.97;;
8421;SDS011;4248;48.196;10.924;2023-03-23T07:30:27;13.30;;;4.00;;
8421;SDS011;4248;48.196;10.924;2023-03-23T07:32:54;6.40;;;3.20;;
8421;SDS011;4248;48.196;10.924;2023-03-23T07:35:21;7.00;;;3.43;;
8421;SDS011;4248;48.196;10.924;2023-03-23T07:37:48;8.17;;;3.40;;
8421;SDS011;4248;48.196;10.924;2023-03-23T07:40:14;7.30;;;2.80;;
8421;SDS011;4248;48.196;10.924;2023-03-23T07:42:44;5.43;;;2.77;;
8421;SDS011;4248;48.196;10.924;2023-03-23T07:45:14;7.77;;;3.20;;
8421;SDS011;4248;48.196;10.924;2023-03-23T07:47:40;4.93;;;2.60;;
8421;SDS011;4248;48.196;10.924;2023-03-23T07:50:06;4.37;;;2.77;;
8421;SDS011;4248;48.196;10.924;2023-03-23T07:52:33;4.57;;;2.80;;
8421;SDS011;4248;48.196;10.924;2023-03-23T07:55:00;5.27;;;2.80;;
8421;SDS011;4248;48.196;10.924;2023-03-23T07:57:27;5.90;;;2.63;;
8421;SDS011;4248;48.196;10.924;2023-03-23T07:59:54;3.97;;;2.63;;
8421;SDS011;4248;48.196;10.924;2023-03-23T08:02:20;4.33;;;2.80;;
8421;SDS011;4248;48.196;10.924;2023-03-23T08:04:46;4.63;;;2.30;;
8421;SDS011;4248;48.196;10.924;2023-03-23T08:07:13;4.80;;;3.00;;
8421;SDS011;4248;48.196;10.924;2023-03-23T08:09:42;5.10;;;2.80;;
8421;SDS011;4248;48.196;10.924;2023-03-23T08:12:08;5.43;;;2.50;;
8421;SDS011;4248;48.196;10.924;2023-03-23T08:14:33;5.97;;;2.57;;
8421;SDS011;4248;48.196;10.924;2023-03-23T08:16:59;8.10;;;2.20;;
8421;SDS011;4248;48.196;10.924;2023-03-23T08:19:25;8.23;;;2.50;;
8421;SDS011;4248;48.196;10.924;2023-03-23T08:21:51;5.30;;;2.43;;
8421;SDS011;4248;48.196;10.924;2023-03-23T08:24:17;4.30;;;2.57;;
8421;SDS011;4248;48.196;10.924;2023-03-23T08:26:43;6.10;;;2.73;;
8421;SDS011;4248;48.196;10.924;2023-03-23T08:29:09;9.97;;;2.53;;
8421;SDS011;4248;48.196;10.924;2023-03-23T08:31:35;4.20;;;2.43;;
8421;SDS011;4248;48.196;10.924;2023-03-23T08:34:02;4.00;;;2.17;;
8421;SDS011;4248;48.196;10.924;2023-03-23T08:36:29;4.30;;;2.40;;
8421;SDS011;4248;48.196;10.924;2023-03-23T08:39:00;6.20;;;2.20;;
8421;SDS011;4248;48.196;10.924;2023-03-23T08:41:25;3.90;;;2.30;;
8421;SDS011;4248;48.196;10.924;2023-03-23T08:43:51;6.80;;;2.30;;
8421;SDS011;4248;48.196;10.924;2023-03-23T08:46:17;5.70;;;2.20;;
8421;SDS011;4248;48.196;10.924;2023-03-23T08:48:44;4.00;;;2.20;;
8421;SDS011;4248;48.196;10.924;2023-03-23T08:51:11;4.03;;;2.00;;
8421;SDS011;4248;48.196;10.924;2023-03-23T08:53:37;5.80;;;2.20;;
8421;SDS011;4248;48.196;10.924;2023-03-23T08:56:06;6.90;;;2.33;;
8421;SDS011;4248;48.196;10.924;2023-03-23T08:58:34;8.80;;;2.53;;
8421;SDS011;4248;48.196;10.924;2023-03-23T09:01:01;8.53;;;2.60;;
8421;SDS011;4248;48.196;10.924;2023-03-23T09:03:27;8.23;;;2.93;;
8421;SDS011;4248;48.196;10.924;2023-03-23T09:05:57;6.80;;;3.40;;
8421;SDS011;4248;48.196;10.924;2023-03-23T09:08:25;6.27;;;3.20;;
8421;SDS011;4248;48.196;10.924;2023-03-23T09:10:52;6.80;;;2.70;;
8421;SDS011;4248;48.196;10.924;2023-03-23T09:13:18;3.63;;;2.40;;
8421;SDS011;4248;48.196;10.924;2023-03-23T09:15:43;4.57;;;2.77;;
8421;SDS011;4248;48.196;10.924;2023-03-23T09:18:09;4.93;;;2.50;;
8421;SDS011;4248;48.196;10.924;2023-03-23T09:20:35;4.93;;;2.17;;
8421;SDS011;4248;48.196;10.924;2023-03-23T09:23:02;6.53;;;2.60;;
8421;SDS011;4248;48.196;10.924;2023-03-23T09:25:28;5.73;;;2.30;;
8421;SDS011;4248;48.196;10.924;2023-03-23T09:27:55;4.47;;;1.93;;
8421;SDS011;4248;48.196;10.924;2023-03-23T09:30:23;4.50;;;2.13;;
8421;SDS011;4248;48.196;10.924;2023-03-23T09:32:51;6.20;;;2.30;;
8421;SDS011;4248;48.196;10.924;2023-03-23T09:35:17;6.53;;;2.47;;
8421;SDS011;4248;48.196;10.924;2023-03-23T09:37:46;6.53;;;2.10;;
8421;SDS011;4248;48.196;10.924;2023-03-23T09:40:14;2.73;;;1.63;;
8421;SDS011;4248;48.196;10.924;2023-03-23T09:42:53;3.67;;;2.30;;
8421;SDS011;4248;48.196;10.924;2023-03-23T09:46:11;7.70;;;2.60;;
8421;SDS011;4248;48.196;10.924;2023-03-23T09:48:29;4.30;;;2.20;;
8421;SDS011;4248;48.196;10.924;2023-03-23T09:51:28;3.90;;;1.80;;
8421;SDS011;4248;48.196;10.924;2023-03-23T09:56:58;5.40;;;1.80;;
8421;SDS011;4248;48.196;10.924;2023-03-23T10:02:15;5.30;;;2.33;;
8421;SDS011;4248;48.196;10.924;2023-03-23T10:04:51;3.80;;;1.70;;
8421;SDS011;4248;48.196;10.924;2023-03-23T10:07:25;3.70;;;2.07;;
8421;SDS011;4248;48.196;10.924;2023-03-23T10:09:53;6.13;;;2.20;;
8421;SDS011;4248;48.196;10.924;2023-03-23T10:12:36;6.30;;;2.20;;
8421;SDS011;4248;48.196;10.924;2023-03-23T10:15:41;7.30;;;2.37;;
8421;SDS011;4248;48.196;10.924;2023-03-23T10:18:22;4.17;;;1.90;;
8421;SDS011;4248;48.196;10.924;2023-03-23T10:21:01;4.23;;;2.47;;
8421;SDS011;4248;48.196;10.924;2023-03-23T10:31:36;4.43;;;2.10;;
8421;SDS011;4248;48.196;10.924;2023-03-23T10:34:15;5.13;;;2.37;;
8421;SDS011;4248;48.196;10.924;2023-03-23T10:37:08;4.20;;;2.00;;
8421;SDS011;4248;48.196;10.924;2023-03-23T10:39:47;3.90;;;1.80;;
8421;SDS011;4248;48.196;10.924;2023-03-23T10:42:26;8.13;;;2.40;;
8421;SDS011;4248;48.196;10.924;2023-03-23T10:44:59;4.90;;;2.50;;
8421;SDS011;4248;48.196;10.924;2023-03-23T10:47:26;5.53;;;2.10;;
8421;SDS011;4248;48.196;10.924;2023-03-23T10:49:57;3.47;;;2.07;;
8421;SDS011;4248;48.196;10.924;2023-03-23T10:52:35;6.00;;;2.33;;
8421;SDS011;4248;48.196;10.924;2023-03-23T10:57:36;5.53;;;2.47;;
8421;SDS011;4248;48.196;10.924;2023-03-23T11:02:41;3.80;;;2.23;;
8421;SDS011;4248;48.196;10.924;2023-03-23T11:05:54;4.97;;;2.60;;
8421;SDS011;4248;48.196;10.924;2023-03-23T11:08:17;8.20;;;3.00;;
8421;SDS011;4248;48.196;10.924;2023-03-23T11:10:49;3.90;;;2.13;;
8421;SDS011;4248;48.196;10.924;2023-03-23T11:13:20;5.80;;;2.07;;
8421;SDS011;4248;48.196;10.924;2023-03-23T11:15:48;5.83;;;2.63;;
8421;SDS011;4248;48.196;10.924;2023-03-23T11:20:52;5.60;;;2.27;;
8421;SDS011;4248;48.196;10.924;2023-03-23T11:28:45;5.57;;;2.50;;
8421;SDS011;4248;48.196;10.924;2023-03-23T11:31:36;6.93;;;2.90;;
8421;SDS011;4248;48.196;10.924;2023-03-23T11:34:16;4.40;;;2.27;;
8421;SDS011;4248;48.196;10.924;2023-03-23T11:36:49;10.87;;;2.03;;
8421;SDS011;4248;48.196;10.924;2023-03-23T11:39:28;5.50;;;2.70;;
8421;SDS011;4248;48.196;10.924;2023-03-23T11:41:59;4.10;;;2.10;;
8421;SDS011;4248;48.196;10.924;2023-03-23T11:44:40;3.37;;;1.60;;
8421;SDS011;4248;48.196;10.924;2023-03-23T11:58:11;3.80;;;1.50;;
8421;SDS011;4248;48.196;10.924;2023-03-23T12:00:41;4.07;;;1.70;;
8421;SDS011;4248;48.196;10.924;2023-03-23T12:03:23;3.37;;;1.63;;
8421;SDS011;4248;48.196;10.924;2023-03-23T12:06:02;3.23;;;1.60;;
8421;SDS011;4248;48.196;10.924;2023-03-23T12:08:59;4.53;;;2.10;;
8421;SDS011;4248;48.196;10.924;2023-03-23T12:11:38;5.20;;;1.93;;
8421;SDS011;4248;48.196;10.924;2023-03-23T12:25:33;5.40;;;1.60;;
8421;SDS011;4248;48.196;10.924;2023-03-23T12:28:15;3.40;;;1.40;;
8421;SDS011;4248;48.196;10.924;2023-03-23T12:31:05;4.40;;;1.90;;
8421;SDS011;4248;48.196;10.924;2023-03-23T12:33:53;4.20;;;1.90;;
8421;SDS011;4248;48.196;10.924;2023-03-23T12:48:13;4.23;;;1.87;;
8421;SDS011;4248;48.196;10.924;2023-03-23T12:50:45;3.67;;;1.50;;
8421;SDS011;4248;48.196;10.924;2023-03-23T12:53:32;2.80;;;1.63;;
8421;SDS011;4248;48.196;10.924;2023-03-23T12:59:13;8.30;;;2.00;;
8421;SDS011;4248;48.196;10.924;2023-03-23T13:07:47;3.30;;;1.90;;
8421;SDS011;4248;48.196;10.924;2023-03-23T13:12:50;3.33;;;1.60;;
8421;SDS011;4248;48.196;10.924;2023-03-23T13:21:31;3.07;;;1.50;;
8421;SDS011;4248;48.196;10.924;2023-03-23T13:24:09;3.20;;;1.90;;
8421;SDS011;4248;48.196;10.924;2023-03-23T13:26:38;4.67;;;1.80;;
8421;SDS011;4248;48.196;10.924;2023-03-23T13:29:08;4.40;;;1.90;;
8421;SDS011;4248;48.196;10.924;2023-03-23T13:31:39;4.83;;;1.90;;
8421;SDS011;4248;48.196;10.924;2023-03-23T13:42:21;5.10;;;1.73;;
8421;SDS011;4248;48.196;10.924;2023-03-23T14:05:34;4.70;;;1.90;;
8421;SDS011;4248;48.196;10.924;2023-03-23T14:10:49;4.20;;;1.80;;
8421;SDS011;4248;48.196;10.924;2023-03-23T14:13:40;3.53;;;1.90;;
8421;SDS011;4248;48.196;10.924;2023-03-23T14:16:23;5.40;;;2.00;;
8421;SDS011;4248;48.196;10.924;2023-03-23T14:18:54;4.10;;;1.90;;
8421;SDS011;4248;48.196;10.924;2023-03-23T14:21:22;4.80;;;2.33;;
8421;SDS011;4248;48.196;10.924;2023-03-23T14:24:00;5.07;;;2.33;;
8421;SDS011;4248;48.196;10.924;2023-03-23T14:26:50;3.60;;;1.80;;
8421;SDS011;4248;48.196;10.924;2023-03-23T14:29:18;3.47;;;1.67;;
8421;SDS011;4248;48.196;10.924;2023-03-23T14:31:45;4.47;;;2.30;;
8421;SDS011;4248;48.196;10.924;2023-03-23T14:34:21;3.97;;;1.70;;
8421;SDS011;4248;48.196;10.924;2023-03-23T14:36:50;4.70;;;2.07;;
8421;SDS011;4248;48.196;10.924;2023-03-23T14:41:46;5.03;;;2.30;;
8421;SDS011;4248;48.196;10.924;2023-03-23T14:44:14;3.40;;;2.10;;
8421;SDS011;4248;48.196;10.924;2023-03-23T14:46:43;3.20;;;1.70;;
8421;SDS011;4248;48.196;10.924;2023-03-23T14:49:10;3.83;;;1.97;;
8421;SDS011;4248;48.196;10.924;2023-03-23T14:51:50;5.67;;;1.97;;
8421;SDS011;4248;48.196;10.924;2023-03-23T14:54:25;4.13;;;2.00;;
8421;SDS011;4248;48.196;10.924;2023-03-23T14:56:51;5.57;;;1.80;;
8421;SDS011;4248;48.196;10.924;2023-03-23T14:59:18;6.87;;;2.03;;
8421;SDS011;4248;48.196;10.924;2023-03-23T15:01:45;3.70;;;2.00;;
8421;SDS011;4248;48.196;10.924;2023-03-23T15:04:14;5.00;;;2.20;;
8421;SDS011;4248;48.196;10.924;2023-03-23T15:06:48;3.73;;;1.80;;
8421;SDS011;4248;48.196;10.924;2023-03-23T15:09:23;5.60;;;2.20;;
8421;SDS011;4248;48.196;10.924;2023-03-23T15:14:30;8.87;;;2.20;;
8421;SDS011;4248;48.196;10.924;2023-03-23T15:17:00;4.37;;;2.20;;
8421;SDS011;4248;48.196;10.924;2023-03-23T15:19:36;3.17;;;1.77;;
8421;SDS011;4248;48.196;10.924;2023-03-23T15:22:12;5.50;;;2.40;;
8421;SDS011;4248;48.196;10.924;2023-03-23T15:27:40;3.30;;;1.97;;
8421;SDS011;4248;48.196;10.924;2023-03-23T15:32:42;7.30;;;2.00;;
8421;SDS011;4248;48.196;10.924;2023-03-23T15:35:18;3.30;;;1.80;;
8421;SDS011;4248;48.196;10.924;2023-03-23T15:37:47;4.17;;;2.30;;
8421;SDS011;4248;48.196;10.924;2023-03-23T15:40:25;4.63;;;2.10;;
8421;SDS011;4248;48.196;10.924;2023-03-23T15:43:05;3.93;;;2.00;;
8421;SDS011;4248;48.196;10.924;2023-03-23T15:45:33;11.70;;;2.07;;
8421;SDS011;4248;48.196;10.924;2023-03-23T15:48:10;4.60;;;2.33;;
8421;SDS011;4248;48.196;10.924;2023-03-23T15:50:37;5.73;;;2.13;;
8421;SDS011;4248;48.196;10.924;2023-03-23T15:53:26;7.60;;;2.40;;
8421;SDS011;4248;48.196;10.924;2023-03-23T15:56:02;4.30;;;2.10;;
8421;SDS011;4248;48.196;10.924;2023-03-23T15:58:30;8.73;;;1.90;;
8421;SDS011;4248;48.196;10.924;2023-03-23T16:00:57;6.20;;;2.03;;
8421;SDS011;4248;48.196;10.924;2023-03-23T16:06:20;4.43;;;2.00;;
8421;SDS011;4248;48.196;10.924;2023-03-23T16:08:47;3.60;;;1.87;;
8421;SDS011;4248;48.196;10.924;2023-03-23T16:11:14;5.40;;;2.10;;
8421;SDS011;4248;48.196;10.924;2023-03-23T16:13:41;6.63;;;2.20;;
8421;SDS011;4248;48.196;10.924;2023-03-23T16:16:17;7.63;;;2.53;;
8421;SDS011;4248;48.196;10.924;2023-03-23T16:18:47;4.30;;;2.33;;
8421;SDS011;4248;48.196;10.924;2023-03-23T16:21:12;4.83;;;2.60;;
8421;SDS011;4248;48.196;10.924;2023-03-23T16:23:38;6.60;;;2.33;;
8421;SDS011;4248;48.196;10.924;2023-03-23T16:26:05;7.50;;;3.07;;
8421;SDS011;4248;48.196;10.924;2023-03-23T16:28:31;5.17;;;1.90;;
8421;SDS011;4248;48.196;10.924;2023-03-23T16:30:56;6.40;;;2.80;;
8421;SDS011;4248;48.196;10.924;2023-03-23T16:33:22;10.60;;;2.00;;
8421;SDS011;4248;48.196;10.924;2023-03-23T16:35:47;5.73;;;2.40;;
8421;SDS011;4248;48.196;10.924;2023-03-23T16:38:14;6.00;;;2.70;;
8421;SDS011;4248;48.196;10.924;2023-03-23T16:40:42;7.20;;;2.50;;
8421;SDS011;4248;48.196;10.924;2023-03-23T16:43:11;6.93;;;2.40;;
8421;SDS011;4248;48.196;10.924;2023-03-23T16:45:39;8.83;;;2.73;;
8421;SDS011;4248;48.196;10.924;2023-03-23T16:48:06;6.13;;;2.13;;
8421;SDS011;4248;48.196;10.924;2023-03-23T16:50:32;5.70;;;2.13;;
8421;SDS011;4248;48.196;10.924;2023-03-23T16:52:59;9.57;;;2.10;;
8421;SDS011;4248;48.196;10.924;2023-03-23T16:55:25;7.13;;;2.27;;
8421;SDS011;4248;48.196;10.924;2023-03-23T16:57:52;4.90;;;2.37;;
8421;SDS011;4248;48.196;10.924;2023-03-23T17:00:18;3.87;;;2.20;;
8421;SDS011;4248;48.196;10.924;2023-03-23T17:02:45;6.53;;;3.90;;
8421;SDS011;4248;48.196;10.924;2023-03-23T17:05:12;4.33;;;2.33;;
8421;SDS011;4248;48.196;10.924;2023-03-23T17:07:40;5.30;;;2.57;;
8421;SDS011;4248;48.196;10.924;2023-03-23T17:10:06;4.43;;;2.10;;
8421;SDS011;4248;48.196;10.924;2023-03-23T17:12:34;5.03;;;2.17;;
8421;SDS011;4248;48.196;10.924;2023-03-23T17:15:00;6.83;;;2.87;;
8421;SDS011;4248;48.196;10.924;2023-03-23T17:17:25;3.90;;;2.07;;
8421;SDS011;4248;48.196;10.924;2023-03-23T17:19:52;5.13;;;2.63;;
8421;SDS011;4248;48.196;10.924;2023-03-23T17:22:17;10.20;;;3.10;;
8421;SDS011;4248;48.196;10.924;2023-03-23T17:24:43;5.50;;;3.00;;
8421;SDS011;4248;48.196;10.924;2023-03-23T17:27:11;6.70;;;2.30;;
8421;SDS011;4248;48.196;10.924;2023-03-23T17:29:38;6.60;;;4.00;;
8421;SDS011;4248;48.196;10.924;2023-03-23T17:32:03;10.10;;;5.30;;
8421;SDS011;4248;48.196;10.924;2023-03-23T17:34:29;8.67;;;4.40;;
8421;SDS011;4248;48.196;10.924;2023-03-23T17:36:55;19.27;;;6.30;;
8421;SDS011;4248;48.196;10.924;2023-03-23T17:39:21;14.40;;;9.00;;
8421;SDS011;4248;48.196;10.924;2023-03-23T17:41:46;10.87;;;5.80;;
8421;SDS011;4248;48.196;10.924;2023-03-23T17:44:12;6.77;;;3.70;;
8421;SDS011;4248;48.196;10.924;2023-03-23T17:46:38;7.70;;;4.63;;